Time;durP1;ratioP1;P1;durP2;ratioP2;P2;SDS_P1;SDS_P2;PMS_P1;PMS_P2;Temp;Humidity;BMP_temperature;BMP_pressure;BME280_temperature;BME280_humidity;BME280_pressure;Samples;Min_cycle;Max_cycle;Signal;HPM_P1;HPM_P2
2023/08/02 00:00:34;;;;;;;8.68;2.83;;;;;;;-146.25;100.00;52347.91;2079818;28;33107;-70
2023/08/02 00:01:44;;;;;;;5.78;3.00;;;;;;;-146.25;100.00;52354.00;2080836;28;32105;-69
2023/08/02 00:02:46;;;;;;;10.77;3.10;;;;;;;-146.25;100.00;52337.78;2080642;28;32699;-69
2023/08/02 00:03:48;;;;;;;8.68;2.78;;;;;;;-146.25;100.00;52323.59;2081551;28;20172;-69
2023/08/02 00:05:02;;;;;;;4.90;2.10;;;;;;;-146.25;100.00;52364.13;2081089;28;34102;-69
2023/08/02 00:06:04;;;;;;;6.10;2.75;;;;;;;-146.25;100.00;52343.88;2088110;28;38667;-69
2023/08/02 00:07:06;;;;;;;4.60;2.88;;;;;;;-146.25;100.00;52356.03;2088181;28;33562;-68
2023/08/02 00:08:07;;;;;;;6.00;2.33;;;;;;;-146.25;100.00;52343.88;2080383;28;37101;-69
2023/08/02 00:09:09;;;;;;;7.28;2.42;;;;;;;-146.25;100.00;52341.84;2080959;28;35537;-68
2023/08/02 00:10:11;;;;;;;4.95;2.58;;;;;;;-146.25;100.00;52356.03;2080738;28;36590;-69
2023/08/02 00:11:17;;;;;;;7.82;2.65;;;;;;;-146.25;100.00;52376.31;2079894;28;35462;-69
2023/08/02 00:12:19;;;;;;;6.80;2.88;;;;;;;-146.25;100.00;52349.94;2080345;28;34476;-69
2023/08/02 00:13:21;;;;;;;8.18;3.13;;;;;;;-146.25;100.00;52368.19;2080742;28;37364;-69
2023/08/02 00:14:23;;;;;;;4.63;2.22;;;;;;;-146.25;100.00;52372.25;2079825;28;35552;-69
2023/08/02 00:15:27;;;;;;;7.32;2.85;;;;;;;-146.25;100.00;52354.00;2080173;28;35008;-68
2023/08/02 00:16:29;;;;;;;6.60;2.83;;;;;;;-146.25;100.00;52317.50;2080690;28;37131;-69
2023/08/02 00:17:31;;;;;;;6.05;2.67;;;;;;;-146.25;100.00;52360.09;2079987;28;33801;-69
2023/08/02 00:18:33;;;;;;;10.48;2.85;;;;;;;-146.25;100.00;52382.38;2079890;28;36029;-68
2023/08/02 00:19:36;;;;;;;5.82;2.75;;;;;;;-146.25;100.00;52368.19;2080755;28;36827;-68
2023/08/02 00:20:39;;;;;;;7.20;2.90;;;;;;;-146.25;100.00;52368.19;2080655;28;36432;-69
2023/08/02 00:21:42;;;;;;;4.40;2.63;;;;;;;-146.25;100.00;52351.97;2079806;28;37951;-69
2023/08/02 00:22:44;;;;;;;6.43;2.78;;;;;;;-146.25;100.00;52364.13;2080572;28;33425;-68
2023/08/02 00:23:46;;;;;;;9.07;3.05;;;;;;;-146.25;100.00;52382.38;2088194;28;31362;-68
2023/08/02 00:24:48;;;;;;;5.82;2.88;;;;;;;-146.25;100.00;52400.63;2087773;28;36029;-69
2023/08/02 00:25:51;;;;;;;6.45;3.10;;;;;;;-146.25;100.00;52382.38;2081079;28;34645;-69
2023/08/02 00:26:53;;;;;;;4.28;2.72;;;;;;;-146.25;100.00;52372.25;2080237;28;32884;-68
2023/08/02 00:27:55;;;;;;;8.48;2.80;;;;;;;-146.25;100.00;52313.44;2080592;28;28159;-68
2023/08/02 00:28:56;;;;;;;6.63;2.72;;;;;;;-146.25;100.00;52337.78;2087744;28;26357;-68
2023/08/02 00:29:58;;;;;;;7.30;2.65;;;;;;;-146.25;100.00;52343.88;2080013;28;32643;-68
2023/08/02 00:31:00;;;;;;;5.45;2.75;;;;;;;-146.25;100.00;52366.16;2072102;28;28126;-69
2023/08/02 00:32:02;;;;;;;6.25;2.80;;;;;;;-146.25;100.00;52345.91;2080227;28;24452;-69
2023/08/02 00:33:04;;;;;;;7.75;3.30;;;;;;;-146.25;100.00;52323.59;2079869;28;39905;-69
2023/08/02 00:34:06;;;;;;;7.57;2.67;;;;;;;-146.25;100.00;52358.06;2079939;28;37646;-69
2023/08/02 00:35:11;;;;;;;10.02;3.22;;;;;;;-146.25;100.00;52335.75;2080613;28;28581;-69
2023/08/02 00:36:12;;;;;;;5.70;2.50;;;;;;;-146.25;100.00;52339.81;2081062;28;20045;-68
2023/08/02 00:37:14;;;;;;;4.97;2.67;;;;;;;-146.25;100.00;52378.34;2088460;28;26700;-68
2023/08/02 00:38:16;;;;;;;9.18;3.00;;;;;;;-146.25;100.00;52351.97;2088142;28;24003;-69
2023/08/02 00:39:19;;;;;;;9.10;3.40;;;;;;;-146.25;100.00;52343.88;2072011;28;31530;-69
2023/08/02 00:40:25;;;;;;;5.35;3.20;;;;;;;-146.25;100.00;52360.09;2072276;28;27974;-68
2023/08/02 00:41:26;;;;;;;8.60;2.90;;;;;;;-146.25;100.00;52362.13;2080645;28;27094;-68
2023/08/02 00:42:28;;;;;;;6.93;3.10;;;;;;;-146.25;100.00;52331.69;2087887;28;31326;-68
2023/08/02 00:43:41;;;;;;;7.88;3.22;;;;;;;-146.25;100.00;52343.88;2088059;28;31795;-68
2023/08/02 00:44:42;;;;;;;8.52;3.40;;;;;;;-146.25;100.00;52358.06;2088641;28;31155;-68
2023/08/02 00:45:46;;;;;;;7.60;3.20;;;;;;;-146.25;100.00;52351.97;2087829;28;20038;-69
2023/08/02 00:46:47;;;;;;;6.40;2.90;;;;;;;-146.25;100.00;52364.13;2080853;28;20037;-69
2023/08/02 00:47:49;;;;;;;11.05;3.30;;;;;;;-146.25;100.00;52354.00;2081150;28;31736;-69
2023/08/02 00:48:51;;;;;;;6.78;3.40;;;;;;;-146.25;100.00;52349.94;2071693;28;31340;-69
2023/08/02 00:49:53;;;;;;;6.90;2.90;;;;;;;-146.25;100.00;52343.88;2071847;28;33525;-69
2023/08/02 00:50:56;;;;;;;6.18;2.88;;;;;;;-146.25;100.00;52317.50;2088780;28;20112;-68
2023/08/02 00:51:58;;;;;;;5.25;2.75;;;;;;;-146.25;100.00;52356.03;2079385;28;38250;-69
2023/08/02 00:53:03;;;;;;;7.78;3.20;;;;;;;-146.25;100.00;52339.81;2080159;28;26519;-69
2023/08/02 00:54:07;;;;;;;6.43;3.05;;;;;;;-146.25;100.00;52360.09;2080656;28;20084;-68
2023/08/02 00:55:09;;;;;;;9.50;3.50;;;;;;;-146.25;100.00;52331.69;2080275;28;32192;-68
2023/08/02 00:56:14;;;;;;;6.28;3.30;;;;;;;-146.25;100.00;52343.88;2072475;28;21026;-69
2023/08/02 00:57:18;;;;;;;7.30;3.38;;;;;;;-146.25;100.00;52313.44;2072367;28;32454;-67
2023/08/02 00:58:19;;;;;;;11.23;4.30;;;;;;;-146.25;100.00;52339.81;2080249;28;21094;-69
2023/08/02 00:59:21;;;;;;;5.95;3.35;;;;;;;-146.25;100.00;52351.97;2080788;28;21059;-68
2023/08/02 01:00:25;;;;;;;7.35;3.50;;;;;;;-146.25;100.00;52331.69;2088124;28;26165;-69
2023/08/02 01:01:28;;;;;;;6.35;3.20;;;;;;;-146.25;100.00;52323.59;2088100;28;20050;-68
2023/08/02 01:02:32;;;;;;;8.48;3.65;;;;;;;-146.25;100.00;52347.91;2080680;28;30074;-68
2023/08/02 01:03:40;;;;;;;6.50;3.88;;;;;;;-146.25;100.00;52343.88;2080603;28;29945;-68
2023/08/02 01:04:44;;;;;;;11.85;3.88;;;;;;;-146.25;100.00;52321.56;2087744;28;31914;-69
2023/08/02 01:06:05;;;;;;;8.65;4.50;;;;;;;-146.25;100.00;52341.84;2087829;28;32765;-68
2023/08/02 01:07:30;;;;;;;12.07;4.30;;;;;;;-146.25;100.00;52362.13;2078946;28;28285;-69
2023/08/02 01:08:37;;;;;;;8.40;3.70;;;;;;;-146.25;100.00;52339.81;2079869;28;39158;-69
2023/08/02 01:10:00;;;;;;;8.30;3.53;;;;;;;-146.25;100.00;52351.97;2080678;28;20140;-68
2023/08/02 01:11:20;;;;;;;5.93;3.40;;;;;;;-146.25;100.00;52341.84;2083045;28;38377;-68
2023/08/02 01:12:24;;;;;;;9.93;4.15;;;;;;;-146.25;100.00;52368.19;2081271;28;20239;-69
2023/08/02 01:13:29;;;;;;;9.27;3.92;;;;;;;-146.25;100.00;52335.75;2071340;28;32292;-68
2023/08/02 01:14:33;;;;;;;9.00;3.90;;;;;;;-146.25;100.00;52343.88;2071528;28;20960;-68
2023/08/02 01:15:44;;;;;;;7.32;3.50;;;;;;;-146.25;100.00;52335.75;2074177;28;20129;-68
2023/08/02 01:16:48;;;;;;;8.93;3.75;;;;;;;-146.25;100.00;52315.47;2079962;28;31000;-69
2023/08/02 01:17:53;;;;;;;11.55;3.70;;;;;;;-146.25;100.00;52317.50;2080283;28;20038;-68
2023/08/02 01:18:55;;;;;;;8.20;3.42;;;;;;;-146.25;100.00;52341.84;2080008;28;30761;-68
2023/08/02 01:20:04;;;;;;;7.30;3.30;;;;;;;-146.25;100.00;52341.84;2080370;28;32083;-68
2023/08/02 01:21:06;;;;;;;6.75;3.58;;;;;;;-146.25;100.00;52358.06;2079620;28;35568;-69
2023/08/02 01:22:08;;;;;;;7.55;3.25;;;;;;;-146.25;100.00;52329.66;2079949;28;24539;-68
2023/08/02 01:23:10;;;;;;;7.60;3.40;;;;;;;-146.25;100.00;52347.91;2080467;28;20231;-68
2023/08/02 01:24:15;;;;;;;11.70;3.47;;;;;;;-146.25;100.00;52364.13;2079858;28;34001;-69
2023/08/02 01:25:16;;;;;;;8.07;3.40;;;;;;;-146.25;100.00;52360.09;2088320;28;20153;-69
2023/08/02 01:26:20;;;;;;;10.32;3.33;;;;;;;-146.25;100.00;52293.19;2087973;28;24794;-69
2023/08/02 01:27:28;;;;;;;7.68;3.60;;;;;;;-146.25;100.00;52341.84;2080395;28;20042;-68
2023/08/02 01:28:40;;;;;;;7.10;2.92;;;;;;;-146.25;100.00;52315.47;2087999;28;31679;-68
2023/08/02 01:29:51;;;;;;;10.52;3.80;;;;;;;-146.25;100.00;52331.69;2078501;28;20053;-67
2023/08/02 01:30:54;;;;;;;8.88;3.83;;;;;;;-146.25;100.00;52337.78;2075249;28;31114;-69
2023/08/02 01:31:57;;;;;;;5.03;3.03;;;;;;;-146.25;100.00;52351.97;2087746;28;28300;-68
2023/08/02 01:32:59;;;;;;;4.60;3.33;;;;;;;-146.25;100.00;52339.81;2088088;28;29525;-69
2023/08/02 01:34:02;;;;;;;9.18;3.30;;;;;;;-146.25;100.00;52349.94;2087668;28;35545;-68
2023/08/02 01:35:08;;;;;;;6.05;3.47;;;;;;;-146.25;100.00;52341.84;2088206;28;29908;-68
2023/08/02 01:36:10;;;;;;;6.28;3.40;;;;;;;-146.25;100.00;52347.91;2088089;28;28370;-68
2023/08/02 01:37:12;;;;;;;7.03;3.53;;;;;;;-146.25;100.00;52321.56;2088074;28;25026;-69
2023/08/02 01:38:14;;;;;;;5.72;2.80;;;;;;;-146.25;100.00;52354.00;2079481;28;28423;-68
2023/08/02 01:39:16;;;;;;;9.48;3.38;;;;;;;-146.25;100.00;52313.44;2071832;28;28005;-68
2023/08/02 01:40:18;;;;;;;7.28;3.10;;;;;;;-146.25;100.00;52372.25;2071162;28;33117;-69
2023/08/02 01:41:20;;;;;;;8.65;3.20;;;;;;;-146.25;100.00;52317.50;2071984;28;20050;-68
2023/08/02 01:42:21;;;;;;;9.48;2.83;;;;;;;-146.25;100.00;52364.13;2071018;28;38255;-68
2023/08/02 01:43:23;;;;;;;3.97;2.50;;;;;;;-146.25;100.00;52364.13;2079475;28;30797;-69
2023/08/02 01:44:25;;;;;;;7.95;2.90;;;;;;;-146.25;100.00;52343.88;2087825;28;27653;-68
2023/08/02 01:45:26;;;;;;;7.40;2.90;;;;;;;-146.25;100.00;52299.25;2087721;28;32794;-68
2023/08/02 01:46:28;;;;;;;5.60;2.70;;;;;;;-146.25;100.00;52319.53;2087604;28;31965;-69
2023/08/02 01:47:32;;;;;;;7.25;2.92;;;;;;;-146.25;100.00;52364.13;2080601;28;28860;-68
2023/08/02 01:48:34;;;;;;;6.63;3.20;;;;;;;-146.25;100.00;52331.69;2080041;28;29920;-68
2023/08/02 01:49:36;;;;;;;6.10;2.60;;;;;;;-146.25;100.00;52343.88;2079851;28;30596;-68
2023/08/02 01:50:37;;;;;;;11.13;3.03;;;;;;;-146.25;100.00;52360.09;2079798;28;20168;-68
2023/08/02 01:51:39;;;;;;;8.32;3.35;;;;;;;-146.25;100.00;52351.97;2080405;28;30846;-68
2023/08/02 01:52:41;;;;;;;5.55;2.83;;;;;;;-146.25;100.00;52343.88;2087840;28;23438;-69
2023/08/02 01:53:43;;;;;;;8.05;2.42;;;;;;;-146.25;100.00;52380.38;2087628;28;31977;-68
2023/08/02 01:54:45;;;;;;;4.55;2.60;;;;;;;-146.25;100.00;52313.44;2080714;28;20144;-68
2023/08/02 01:55:47;;;;;;;5.28;2.70;;;;;;;-146.25;100.00;52291.16;2079853;28;23559;-68
2023/08/02 01:56:49;;;;;;;5.90;2.95;;;;;;;-146.25;100.00;52386.44;2071839;28;20121;-68
2023/08/02 01:57:50;;;;;;;4.47;2.75;;;;;;;-146.25;100.00;52319.53;2071814;28;20054;-69
2023/08/02 01:58:52;;;;;;;7.32;2.88;;;;;;;-146.25;100.00;52325.63;2071484;28;21084;-68
2023/08/02 01:59:54;;;;;;;5.97;2.85;;;;;;;-146.25;100.00;52362.13;2071922;28;20085;-68
2023/08/02 02:00:56;;;;;;;5.72;3.58;;;;;;;-146.25;100.00;52317.50;2080120;28;20966;-69
2023/08/02 02:01:58;;;;;;;6.30;2.88;;;;;;;-146.25;100.00;52349.94;2079770;28;20922;-68
2023/08/02 02:03:00;;;;;;;7.78;2.97;;;;;;;-146.25;100.00;52358.06;2063484;28;21025;-69
2023/08/02 02:04:01;;;;;;;6.35;2.78;;;;;;;-146.25;100.00;52368.19;2071922;28;20132;-68
2023/08/02 02:05:04;;;;;;;8.80;2.97;;;;;;;-146.25;100.00;52351.97;2079475;28;32485;-68
2023/08/02 02:06:06;;;;;;;8.25;2.88;;;;;;;-146.25;100.00;52343.88;2080074;28;20174;-68
2023/08/02 02:07:08;;;;;;;9.20;3.28;;;;;;;-146.25;100.00;52362.13;2079338;28;29566;-68
2023/08/02 02:08:11;;;;;;;16.67;4.05;;;;;;;-146.25;100.00;52339.81;2080058;28;20042;-68
2023/08/02 02:09:13;;;;;;;5.32;2.92;;;;;;;-146.25;100.00;52331.69;2071291;28;20117;-68
2023/08/02 02:10:15;;;;;;;8.15;3.60;;;;;;;-146.25;100.00;52380.38;2071527;28;29124;-68
2023/08/02 02:11:16;;;;;;;6.05;3.10;;;;;;;-146.25;100.00;52378.34;2079750;28;28083;-67
2023/08/02 02:12:18;;;;;;;7.63;3.30;;;;;;;-146.25;100.00;52339.81;2079742;28;20140;-68
2023/08/02 02:13:24;;;;;;;6.07;2.72;;;;;;;-146.25;100.00;52343.88;2080044;28;24094;-69
2023/08/02 02:14:26;;;;;;;6.35;3.13;;;;;;;-146.25;100.00;52341.84;2079580;28;25533;-68
2023/08/02 02:15:27;;;;;;;6.10;3.30;;;;;;;-146.25;100.00;52323.59;2071084;28;36124;-69
2023/08/02 02:16:29;;;;;;;7.32;3.47;;;;;;;-146.25;100.00;52364.13;2080353;28;20807;-68
2023/08/02 02:17:31;;;;;;;8.15;3.53;;;;;;;-146.25;100.00;52356.03;2079615;28;20034;-68
2023/08/02 02:18:33;;;;;;;7.07;2.90;;;;;;;-146.25;100.00;52331.69;2079114;28;36347;-68
2023/08/02 02:19:35;;;;;;;7.28;3.28;;;;;;;-146.25;100.00;52297.22;2079721;28;28384;-68
2023/08/02 02:20:37;;;;;;;7.43;3.38;;;;;;;-146.25;100.00;52315.47;2079572;28;30219;-69
2023/08/02 02:21:38;;;;;;;8.32;3.80;;;;;;;-146.25;100.00;52327.66;2079261;28;28543;-68
2023/08/02 02:22:40;;;;;;;7.68;3.25;;;;;;;-146.25;100.00;52347.91;2080001;28;31899;-68
2023/08/02 02:23:42;;;;;;;8.77;3.58;;;;;;;-146.25;100.00;52364.13;2079302;28;24153;-68
2023/08/02 02:24:47;;;;;;;10.23;3.63;;;;;;;-146.25;100.00;52343.88;2079298;28;30743;-68
2023/08/02 02:25:51;;;;;;;9.23;3.58;;;;;;;-146.25;100.00;52376.31;2079886;28;29863;-68
2023/08/02 02:26:53;;;;;;;7.15;3.78;;;;;;;-146.25;100.00;52319.53;2079888;28;24755;-67
2023/08/02 02:27:57;;;;;;;12.00;3.28;;;;;;;-146.25;100.00;52339.81;2079590;28;28459;-69
2023/08/02 02:29:00;;;;;;;9.20;3.80;;;;;;;-146.25;100.00;52362.13;2079553;28;20120;-68
2023/08/02 02:30:03;;;;;;;8.63;3.63;;;;;;;-146.25;100.00;52380.38;2079304;28;28804;-70
2023/08/02 02:31:04;;;;;;;10.57;3.67;;;;;;;-146.25;100.00;52351.97;2079674;28;30820;-68
2023/08/02 02:32:06;;;;;;;7.47;3.75;;;;;;;-146.25;100.00;52376.31;2079518;28;34218;-68
2023/08/02 02:33:08;;;;;;;6.93;3.55;;;;;;;-146.25;100.00;52339.81;2087624;28;24005;-68
2023/08/02 02:34:12;;;;;;;9.60;3.58;;;;;;;-146.25;100.00;52356.03;2079414;28;20030;-69
2023/08/02 02:35:15;;;;;;;5.30;3.58;;;;;;;-146.25;100.00;52364.13;2071909;28;20082;-68
2023/08/02 02:36:17;;;;;;;7.07;3.67;;;;;;;-146.25;100.00;52333.72;2079657;28;27973;-69
2023/08/02 02:37:21;;;;;;;11.15;4.18;;;;;;;-146.25;100.00;52333.72;2087176;28;25364;-68
2023/08/02 02:38:23;;;;;;;9.60;4.20;;;;;;;-146.25;100.00;52317.50;2079580;28;20949;-68
2023/08/02 02:39:27;;;;;;;10.13;3.78;;;;;;;-146.25;100.00;52327.66;2079245;28;20740;-68
2023/08/02 02:40:29;;;;;;;10.95;3.80;;;;;;;-146.25;100.00;52347.91;2070580;28;29607;-68
2023/08/02 02:41:30;;;;;;;6.68;3.95;;;;;;;-146.25;100.00;52343.88;2079732;28;34680;-68
2023/08/02 02:42:32;;;;;;;6.80;3.65;;;;;;;-146.25;100.00;52337.78;2079847;28;30224;-69
2023/08/02 02:43:37;;;;;;;6.50;3.92;;;;;;;-146.25;100.00;52327.66;2079731;28;20167;-68
2023/08/02 02:44:43;;;;;;;11.60;4.30;;;;;;;-146.25;100.00;52333.72;2079122;28;31776;-70
2023/08/02 02:45:49;;;;;;;10.75;4.43;;;;;;;-146.25;100.00;52321.56;2087828;28;33384;-69
2023/08/02 02:46:51;;;;;;;9.13;4.07;;;;;;;-146.25;100.00;52351.97;2087033;28;20046;-69
2023/08/02 02:47:53;;;;;;;6.68;4.35;;;;;;;-146.25;100.00;52345.91;2079368;28;37459;-70
2023/08/02 02:48:55;;;;;;;12.57;4.40;;;;;;;-146.25;100.00;52309.41;2079687;28;35467;-69
2023/08/02 02:49:56;;;;;;;12.52;4.53;;;;;;;-146.25;100.00;52343.88;2079906;28;29008;-69
2023/08/02 02:50:58;;;;;;;11.43;4.70;;;;;;;-146.25;100.00;52351.97;2079201;28;35884;-69
2023/08/02 02:52:00;;;;;;;13.25;4.35;;;;;;;-146.25;100.00;52362.13;2079797;28;20181;-70
2023/08/02 02:53:02;;;;;;;8.10;4.00;;;;;;;-146.25;100.00;52337.78;2079298;28;24173;-69
2023/08/02 02:54:03;;;;;;;9.48;4.00;;;;;;;-146.25;100.00;52307.38;2080292;28;20046;-69
2023/08/02 02:55:05;;;;;;;13.48;4.68;;;;;;;-146.25;100.00;52333.72;2079621;28;20768;-69
2023/08/02 02:56:07;;;;;;;9.52;4.05;;;;;;;-146.25;100.00;52305.34;2071107;28;20132;-69
2023/08/02 02:57:09;;;;;;;11.98;4.28;;;;;;;-146.25;100.00;52303.31;2070085;28;27121;-70
2023/08/02 02:58:11;;;;;;;8.07;3.80;;;;;;;-146.25;100.00;52349.94;2079045;28;34227;-69
2023/08/02 02:59:13;;;;;;;10.05;4.35;;;;;;;-146.25;100.00;52374.28;2079023;28;34665;-69
2023/08/02 03:00:15;;;;;;;11.73;4.40;;;;;;;-146.25;100.00;52331.69;2079630;28;32782;-68
2023/08/02 03:01:16;;;;;;;9.00;4.45;;;;;;;-146.25;100.00;52307.38;2079396;28;35893;-69
2023/08/02 03:02:18;;;;;;;7.72;4.00;;;;;;;-146.25;100.00;52343.88;2080207;28;20953;-69
2023/08/02 03:03:20;;;;;;;10.13;4.28;;;;;;;-146.25;100.00;52358.06;2080089;28;31796;-70
2023/08/02 03:04:22;;;;;;;11.80;4.03;;;;;;;-146.25;100.00;52368.19;2079182;28;36215;-70
2023/08/02 03:05:24;;;;;;;9.93;4.25;;;;;;;-146.25;100.00;52339.81;2078988;28;32421;-69
2023/08/02 03:06:25;;;;;;;10.35;3.78;;;;;;;-146.25;100.00;52358.06;2080219;28;20046;-70
2023/08/02 03:07:30;;;;;;;8.40;3.92;;;;;;;-146.25;100.00;52333.72;2078646;28;35029;-70
2023/08/02 03:08:31;;;;;;;6.63;3.42;;;;;;;-146.25;100.00;52374.28;2071110;28;38179;-70
2023/08/02 03:09:34;;;;;;;8.82;4.35;;;;;;;-146.25;100.00;52360.09;2079113;28;33161;-70
2023/08/02 03:10:35;;;;;;;12.13;4.20;;;;;;;-146.25;100.00;52327.66;2079804;28;33679;-69
2023/08/02 03:11:40;;;;;;;9.45;3.70;;;;;;;-146.25;100.00;52335.75;2079595;28;20037;-70
2023/08/02 03:12:42;;;;;;;9.20;4.18;;;;;;;-146.25;100.00;52335.75;2079057;28;36983;-70
2023/08/02 03:13:43;;;;;;;10.10;3.53;;;;;;;-146.25;100.00;52364.13;2079352;28;34494;-70
2023/08/02 03:14:47;;;;;;;10.07;4.30;;;;;;;-146.25;100.00;52351.97;2080026;28;20034;-70
2023/08/02 03:15:49;;;;;;;9.88;4.07;;;;;;;-146.25;100.00;52345.91;2078953;28;35582;-69
2023/08/02 03:16:51;;;;;;;9.75;4.18;;;;;;;-146.25;100.00;52335.75;2080295;28;20164;-69
2023/08/02 03:17:53;;;;;;;13.55;4.57;;;;;;;-146.25;100.00;52366.16;2079306;28;33926;-69
2023/08/02 03:18:57;;;;;;;12.30;3.58;;;;;;;-146.25;100.00;52351.97;2087244;28;35009;-67
2023/08/02 03:20:01;;;;;;;9.85;4.10;;;;;;;-146.25;100.00;52351.97;2087063;28;35047;-70
2023/08/02 03:21:02;;;;;;;10.05;4.50;;;;;;;-146.25;100.00;52376.31;2087019;28;33848;-70
2023/08/02 03:22:05;;;;;;;11.18;4.47;;;;;;;-146.25;100.00;52378.34;2087748;28;36014;-70
2023/08/02 03:23:07;;;;;;;8.63;4.10;;;;;;;-146.25;100.00;52335.75;2087968;28;20037;-70
2023/08/02 03:24:10;;;;;;;10.55;4.13;;;;;;;-146.25;100.00;52341.84;2087205;28;35433;-70
2023/08/02 03:25:11;;;;;;;9.90;4.28;;;;;;;-146.25;100.00;52319.53;2088052;28;35052;-69
2023/08/02 03:26:13;;;;;;;9.95;4.82;;;;;;;-146.25;100.00;52345.91;2087439;28;34121;-69
2023/08/02 03:27:15;;;;;;;10.75;4.05;;;;;;;-146.25;100.00;52376.31;2087283;28;34397;-69
2023/08/02 03:28:17;;;;;;;10.57;4.20;;;;;;;-146.25;100.00;52356.03;2087809;28;20037;-69
2023/08/02 03:29:21;;;;;;;11.52;4.25;;;;;;;-146.25;100.00;52339.81;2079176;28;28075;-70
2023/08/02 03:30:25;;;;;;;15.85;3.95;;;;;;;-146.25;100.00;52347.91;2079888;28;33898;-70
2023/08/02 03:31:28;;;;;;;8.43;4.13;;;;;;;-146.25;100.00;52354.00;2090331;28;20084;-69
2023/08/02 03:32:29;;;;;;;15.73;4.53;;;;;;;-146.25;100.00;52337.78;2089690;28;37187;-69
2023/08/02 03:33:31;;;;;;;9.45;4.05;;;;;;;-146.25;100.00;52360.09;2090520;28;32314;-69
2023/08/02 03:34:34;;;;;;;11.05;3.90;;;;;;;-146.25;100.00;52339.81;2081654;28;32896;-70
2023/08/02 03:35:36;;;;;;;9.52;4.22;;;;;;;-146.25;100.00;52345.91;2082088;28;35757;-68
2023/08/02 03:36:37;;;;;;;9.93;4.25;;;;;;;-146.25;100.00;52347.91;2090290;28;35020;-68
2023/08/02 03:37:39;;;;;;;12.98;4.28;;;;;;;-146.25;100.00;52351.97;2090446;28;36267;-69
2023/08/02 03:38:44;;;;;;;12.65;4.50;;;;;;;-146.25;100.00;52323.59;2090302;28;36682;-69
2023/08/02 03:39:45;;;;;;;7.47;3.88;;;;;;;-146.25;100.00;52331.69;2090533;28;35191;-69
2023/08/02 03:40:47;;;;;;;10.35;4.20;;;;;;;-146.25;100.00;52315.47;2086109;28;35260;-69
2023/08/02 03:41:52;;;;;;;12.55;4.20;;;;;;;-146.25;100.00;52339.81;2089540;28;34982;-69
2023/08/02 03:42:54;;;;;;;10.55;4.05;;;;;;;-146.25;100.00;52356.03;2088926;28;33929;-69
2023/08/02 03:43:55;;;;;;;14.20;4.53;;;;;;;-146.25;100.00;52343.88;2089316;28;37364;-68
2023/08/02 03:45:00;;;;;;;9.05;4.13;;;;;;;-146.25;100.00;52366.16;2082386;28;20945;-68
2023/08/02 03:46:04;;;;;;;12.32;3.85;;;;;;;-146.25;100.00;52360.09;2081772;28;34842;-69
2023/08/02 03:47:06;;;;;;;9.32;4.22;;;;;;;-146.25;100.00;52388.47;2081884;28;33872;-69
2023/08/02 03:48:08;;;;;;;13.77;4.50;;;;;;;-146.25;100.00;52366.16;2089970;28;36268;-69
2023/08/02 03:49:09;;;;;;;9.38;3.88;;;;;;;-146.25;100.00;52364.13;2089630;28;37323;-68
2023/08/02 03:50:11;;;;;;;10.45;3.90;;;;;;;-146.25;100.00;52356.03;2089750;28;21059;-69
2023/08/02 03:51:13;;;;;;;14.13;4.32;;;;;;;-146.25;100.00;52378.34;2080825;28;20141;-69
2023/08/02 03:52:15;;;;;;;9.98;4.32;;;;;;;-146.25;100.00;52362.13;2080858;28;37368;-68
2023/08/02 03:53:17;;;;;;;16.70;4.78;;;;;;;-146.25;100.00;52343.88;2081381;28;20191;-69
2023/08/02 03:54:18;;;;;;;15.63;4.47;;;;;;;-146.25;100.00;52347.91;2088933;28;36052;-68
2023/08/02 03:55:20;;;;;;;13.38;4.40;;;;;;;-146.25;100.00;52362.13;2088872;28;35025;-68
2023/08/02 03:56:24;;;;;;;13.35;4.43;;;;;;;-146.25;100.00;52364.13;2081593;28;34845;-70
2023/08/02 03:57:26;;;;;;;9.95;4.80;;;;;;;-146.25;100.00;52368.19;2080513;28;36279;-69
2023/08/02 03:58:28;;;;;;;11.02;4.80;;;;;;;-146.25;100.00;52335.75;2080946;28;35702;-69
2023/08/02 03:59:30;;;;;;;10.75;4.18;;;;;;;-146.25;100.00;52343.88;2081062;28;33822;-68
2023/08/02 04:00:32;;;;;;;7.75;4.22;;;;;;;-146.25;100.00;52356.03;2081301;28;38469;-68
2023/08/02 04:01:33;;;;;;;16.15;5.00;;;;;;;-146.25;100.00;52368.19;2080825;28;36916;-68
2023/08/02 04:02:35;;;;;;;9.30;4.22;;;;;;;-146.25;100.00;52378.34;2081200;28;36920;-68
2023/08/02 04:03:37;;;;;;;9.75;4.53;;;;;;;-146.25;100.00;52343.88;2081012;28;33573;-67
2023/08/02 04:04:39;;;;;;;15.73;4.40;;;;;;;-146.25;100.00;52354.00;2081725;28;20249;-68
2023/08/02 04:05:43;;;;;;;10.07;4.20;;;;;;;-146.25;100.00;52356.03;2081197;28;34149;-67
2023/08/02 04:06:47;;;;;;;16.70;4.60;;;;;;;-146.25;100.00;52341.84;2082905;28;20046;-68
2023/08/02 04:07:49;;;;;;;12.48;4.68;;;;;;;-146.25;100.00;52351.97;2080987;28;37239;-69
2023/08/02 04:08:53;;;;;;;8.43;4.10;;;;;;;-146.25;100.00;52376.31;2081644;28;33064;-68
2023/08/02 04:09:55;;;;;;;11.38;4.53;;;;;;;-146.25;100.00;52392.53;2082633;28;32779;-68
2023/08/02 04:11:07;;;;;;;9.93;4.75;;;;;;;-146.25;100.00;52337.78;2081927;28;38322;-68
2023/08/02 04:12:09;;;;;;;13.15;4.35;;;;;;;-146.25;100.00;52317.50;2082639;28;20088;-69
2023/08/02 04:13:11;;;;;;;11.48;4.47;;;;;;;-146.25;100.00;52380.38;2081964;28;36574;-69
2023/08/02 04:14:13;;;;;;;13.13;4.60;;;;;;;-146.25;100.00;52376.31;2081670;28;32575;-67
2023/08/02 04:15:17;;;;;;;10.25;4.15;;;;;;;-146.25;100.00;52311.44;2082681;28;21060;-70
2023/08/02 04:16:19;;;;;;;12.98;4.60;;;;;;;-146.25;100.00;52364.13;2081055;28;38626;-68
2023/08/02 04:17:21;;;;;;;14.60;4.25;;;;;;;-146.25;100.00;52362.13;2089641;28;34643;-68
2023/08/02 04:18:25;;;;;;;14.82;4.07;;;;;;;-146.25;100.00;52384.41;2089272;28;35254;-69
2023/08/02 04:19:27;;;;;;;18.38;4.57;;;;;;;-146.25;100.00;52368.19;2082037;28;38678;-69
2023/08/02 04:20:30;;;;;;;12.25;4.07;;;;;;;-146.25;100.00;52368.19;2090117;28;20779;-68
2023/08/02 04:21:32;;;;;;;12.30;4.13;;;;;;;-146.25;100.00;52354.00;2089678;28;37828;-69
2023/08/02 04:22:34;;;;;;;15.52;4.65;;;;;;;-146.25;100.00;52343.88;2090001;28;20226;-69
2023/08/02 04:23:35;;;;;;;12.13;4.25;;;;;;;-146.25;100.00;52364.13;2082162;28;34259;-69
2023/08/02 04:24:37;;;;;;;15.35;4.25;;;;;;;-146.25;100.00;52345.91;2081813;28;35408;-69
2023/08/02 04:25:39;;;;;;;12.23;4.18;;;;;;;-146.25;100.00;52331.69;2081820;28;33798;-68
2023/08/02 04:26:43;;;;;;;11.70;3.90;;;;;;;-146.25;100.00;52349.94;2082272;28;20041;-69
2023/08/02 04:27:45;;;;;;;14.80;4.30;;;;;;;-146.25;100.00;52374.28;2082125;28;37306;-68
2023/08/02 04:28:47;;;;;;;10.48;4.63;;;;;;;-146.25;100.00;52358.06;2082590;28;20181;-70
2023/08/02 04:29:49;;;;;;;11.25;4.20;;;;;;;-146.25;100.00;52301.28;2080846;28;38179;-68
2023/08/02 04:30:52;;;;;;;12.63;4.13;;;;;;;-146.25;100.00;52325.63;2081202;28;38422;-68
2023/08/02 04:31:53;;;;;;;10.27;3.53;;;;;;;-146.25;100.00;52384.41;2081871;28;34003;-68
2023/08/02 04:32:55;;;;;;;11.43;3.97;;;;;;;-146.25;100.00;52360.09;2082272;28;38171;-68
2023/08/02 04:33:57;;;;;;;10.98;4.05;;;;;;;-146.25;100.00;52358.06;2082151;28;35134;-68
2023/08/02 04:34:59;;;;;;;11.40;4.47;;;;;;;-146.25;100.00;52382.38;2081802;28;20131;-68
2023/08/02 04:36:01;;;;;;;14.13;3.72;;;;;;;-146.25;100.00;52347.91;2082093;28;36548;-68
2023/08/02 04:37:02;;;;;;;13.38;4.20;;;;;;;-146.25;100.00;52351.97;2081650;28;35974;-68
2023/08/02 04:38:07;;;;;;;9.68;3.55;;;;;;;-146.25;100.00;52394.56;2081740;28;34469;-68
2023/08/02 04:39:10;;;;;;;13.73;4.40;;;;;;;-146.25;100.00;52396.59;2081760;28;38154;-68
2023/08/02 04:40:12;;;;;;;11.52;4.00;;;;;;;-146.25;100.00;52378.34;2081022;28;36878;-68
2023/08/02 04:41:15;;;;;;;11.05;4.05;;;;;;;-146.25;100.00;52368.19;2080668;28;33533;-68
2023/08/02 04:42:20;;;;;;;20.30;4.15;;;;;;;-146.25;100.00;52341.84;2079887;28;32911;-68
2023/08/02 04:43:21;;;;;;;13.57;4.03;;;;;;;-146.25;100.00;52331.69;2080091;28;37545;-68
2023/08/02 04:44:25;;;;;;;10.25;3.90;;;;;;;-146.25;100.00;52345.91;2079899;28;34753;-69
2023/08/02 04:45:28;;;;;;;10.32;3.83;;;;;;;-146.25;100.00;52360.09;2088612;28;20970;-69